sensor_id;sensor_type;location;lat;lon;timestamp;P1;durP1;ratioP1;P2;durP2;ratioP2
7205;SDS011;3644;53.480;10.004;2022-12-26T00:01:31;10.40;;;7.87;;
7205;SDS011;3644;53.480;10.004;2022-12-26T00:03:57;13.77;;;7.40;;
7205;SDS011;3644;53.480;10.004;2022-12-26T00:06:24;11.23;;;7.40;;
7205;SDS011;3644;53.480;10.004;2022-12-26T00:08:51;13.93;;;7.90;;
7205;SDS011;3644;53.480;10.004;2022-12-26T00:11:18;12.73;;;8.10;;
7205;SDS011;3644;53.480;10.004;2022-12-26T00:13:43;19.97;;;9.37;;
7205;SDS011;3644;53.480;10.004;2022-12-26T00:16:13;15.83;;;8.20;;
7205;SDS011;3644;53.480;10.004;2022-12-26T00:18:42;19.90;;;9.43;;
7205;SDS011;3644;53.480;10.004;2022-12-26T00:21:09;20.50;;;10.07;;
7205;SDS011;3644;53.480;10.004;2022-12-26T00:23:36;30.53;;;12.90;;
7205;SDS011;3644;53.480;10.004;2022-12-26T00:26:06;41.77;;;18.10;;
7205;SDS011;3644;53.480;10.004;2022-12-26T00:28:37;48.10;;;18.13;;
7205;SDS011;3644;53.480;10.004;2022-12-26T00:31:04;37.43;;;15.93;;
7205;SDS011;3644;53.480;10.004;2022-12-26T00:33:34;25.53;;;11.50;;
7205;SDS011;3644;53.480;10.004;2022-12-26T00:36:01;26.80;;;11.90;;
7205;SDS011;3644;53.480;10.004;2022-12-26T00:38:28;24.33;;;9.43;;
7205;SDS011;3644;53.480;10.004;2022-12-26T00:40:54;18.93;;;9.63;;
7205;SDS011;3644;53.480;10.004;2022-12-26T00:43:19;25.53;;;11.60;;
7205;SDS011;3644;53.480;10.004;2022-12-26T00:45:46;41.67;;;15.97;;
7205;SDS011;3644;53.480;10.004;2022-12-26T00:48:12;30.53;;;12.20;;
7205;SDS011;3644;53.480;10.004;2022-12-26T00:50:38;27.80;;;13.83;;
7205;SDS011;3644;53.480;10.004;2022-12-26T00:53:03;27.87;;;12.50;;
7205;SDS011;3644;53.480;10.004;2022-12-26T00:55:29;21.63;;;11.07;;
7205;SDS011;3644;53.480;10.004;2022-12-26T00:57:54;24.60;;;10.80;;
7205;SDS011;3644;53.480;10.004;2022-12-26T01:00:20;13.33;;;8.27;;
7205;SDS011;3644;53.480;10.004;2022-12-26T01:02:45;15.30;;;8.23;;
7205;SDS011;3644;53.480;10.004;2022-12-26T01:05:11;14.60;;;8.50;;
7205;SDS011;3644;53.480;10.004;2022-12-26T01:07:37;20.00;;;9.03;;
7205;SDS011;3644;53.480;10.004;2022-12-26T01:10:04;18.17;;;8.00;;
7205;SDS011;3644;53.480;10.004;2022-12-26T01:12:30;28.40;;;11.73;;
7205;SDS011;3644;53.480;10.004;2022-12-26T01:14:56;27.30;;;12.70;;
7205;SDS011;3644;53.480;10.004;2022-12-26T01:17:23;25.97;;;11.27;;
7205;SDS011;3644;53.480;10.004;2022-12-26T01:19:49;19.20;;;8.90;;
7205;SDS011;3644;53.480;10.004;2022-12-26T01:22:15;14.03;;;7.30;;
7205;SDS011;3644;53.480;10.004;2022-12-26T01:24:40;12.47;;;7.70;;
7205;SDS011;3644;53.480;10.004;2022-12-26T01:27:06;15.43;;;6.90;;
7205;SDS011;3644;53.480;10.004;2022-12-26T01:29:31;14.13;;;8.00;;
7205;SDS011;3644;53.480;10.004;2022-12-26T01:31:57;16.30;;;8.33;;
7205;SDS011;3644;53.480;10.004;2022-12-26T01:34:22;14.07;;;7.60;;
7205;SDS011;3644;53.480;10.004;2022-12-26T01:36:48;14.97;;;7.47;;
7205;SDS011;3644;53.480;10.004;2022-12-26T01:39:15;14.07;;;7.50;;
7205;SDS011;3644;53.480;10.004;2022-12-26T01:41:41;10.70;;;6.77;;
7205;SDS011;3644;53.480;10.004;2022-12-26T01:44:52;12.63;;;7.33;;
7205;SDS011;3644;53.480;10.004;2022-12-26T01:47:11;18.40;;;8.43;;
7205;SDS011;3644;53.480;10.004;2022-12-26T01:49:39;19.93;;;7.50;;
7205;SDS011;3644;53.480;10.004;2022-12-26T01:52:08;13.67;;;7.37;;
7205;SDS011;3644;53.480;10.004;2022-12-26T01:54:39;9.90;;;6.27;;
7205;SDS011;3644;53.480;10.004;2022-12-26T01:57:11;15.63;;;7.23;;
7205;SDS011;3644;53.480;10.004;2022-12-26T01:59:41;12.10;;;5.70;;
7205;SDS011;3644;53.480;10.004;2022-12-26T02:02:08;12.37;;;6.37;;
7205;SDS011;3644;53.480;10.004;2022-12-26T02:04:35;10.73;;;6.03;;
7205;SDS011;3644;53.480;10.004;2022-12-26T02:07:23;9.23;;;5.33;;
7205;SDS011;3644;53.480;10.004;2022-12-26T02:09:50;13.97;;;5.17;;
7205;SDS011;3644;53.480;10.004;2022-12-26T02:12:20;10.47;;;6.17;;
7205;SDS011;3644;53.480;10.004;2022-12-26T02:14:49;12.13;;;5.73;;
7205;SDS011;3644;53.480;10.004;2022-12-26T02:17:15;11.50;;;6.13;;
7205;SDS011;3644;53.480;10.004;2022-12-26T02:19:44;9.03;;;5.53;;
7205;SDS011;3644;53.480;10.004;2022-12-26T02:33:41;13.97;;;6.00;;
7205;SDS011;3644;53.480;10.004;2022-12-26T02:36:34;12.67;;;8.10;;
7205;SDS011;3644;53.480;10.004;2022-12-26T02:39:19;12.30;;;7.93;;
7205;SDS011;3644;53.480;10.004;2022-12-26T02:44:40;13.50;;;8.13;;
7205;SDS011;3644;53.480;10.004;2022-12-26T02:50:05;20.00;;;8.70;;
7205;SDS011;3644;53.480;10.004;2022-12-26T02:55:56;13.80;;;7.73;;
7205;SDS011;3644;53.480;10.004;2022-12-26T02:58:59;17.23;;;8.97;;
7205;SDS011;3644;53.480;10.004;2022-12-26T03:01:51;12.57;;;7.53;;
7205;SDS011;3644;53.480;10.004;2022-12-26T03:04:39;12.77;;;7.93;;
7205;SDS011;3644;53.480;10.004;2022-12-26T03:07:27;12.77;;;8.00;;
7205;SDS011;3644;53.480;10.004;2022-12-26T03:10:17;10.90;;;6.60;;
7205;SDS011;3644;53.480;10.004;2022-12-26T03:13:06;11.67;;;8.03;;
7205;SDS011;3644;53.480;10.004;2022-12-26T03:15:40;8.40;;;6.20;;
7205;SDS011;3644;53.480;10.004;2022-12-26T03:18:29;10.43;;;6.40;;
7205;SDS011;3644;53.480;10.004;2022-12-26T03:20:58;12.13;;;7.07;;
7205;SDS011;3644;53.480;10.004;2022-12-26T03:23:24;8.47;;;5.73;;
7205;SDS011;3644;53.480;10.004;2022-12-26T03:25:54;10.13;;;5.60;;
7205;SDS011;3644;53.480;10.004;2022-12-26T03:28:43;9.87;;;6.73;;
7205;SDS011;3644;53.480;10.004;2022-12-26T03:31:11;10.40;;;6.10;;
7205;SDS011;3644;53.480;10.004;2022-12-26T03:33:42;7.87;;;6.03;;
7205;SDS011;3644;53.480;10.004;2022-12-26T03:42:25;6.53;;;4.83;;
7205;SDS011;3644;53.480;10.004;2022-12-26T03:57:44;7.30;;;5.40;;
7205;SDS011;3644;53.480;10.004;2022-12-26T04:00:39;7.60;;;5.20;;
7205;SDS011;3644;53.480;10.004;2022-12-26T04:03:25;8.17;;;5.60;;
7205;SDS011;3644;53.480;10.004;2022-12-26T04:06:14;6.40;;;5.40;;
7205;SDS011;3644;53.480;10.004;2022-12-26T04:09:12;6.50;;;4.53;;
7205;SDS011;3644;53.480;10.004;2022-12-26T04:12:02;7.03;;;5.13;;
7205;SDS011;3644;53.480;10.004;2022-12-26T04:14:52;7.97;;;6.10;;
7205;SDS011;3644;53.480;10.004;2022-12-26T04:17:43;7.90;;;5.33;;
7205;SDS011;3644;53.480;10.004;2022-12-26T04:23:30;6.97;;;5.20;;
7205;SDS011;3644;53.480;10.004;2022-12-26T04:26:24;7.23;;;5.10;;
7205;SDS011;3644;53.480;10.004;2022-12-26T04:29:10;9.63;;;5.57;;
7205;SDS011;3644;53.480;10.004;2022-12-26T04:32:02;7.30;;;4.97;;
7205;SDS011;3644;53.480;10.004;2022-12-26T04:34:53;8.67;;;6.07;;
7205;SDS011;3644;53.480;10.004;2022-12-26T04:37:47;8.60;;;5.80;;
7205;SDS011;3644;53.480;10.004;2022-12-26T04:40:35;10.43;;;6.17;;
7205;SDS011;3644;53.480;10.004;2022-12-26T04:43:23;7.20;;;5.63;;
7205;SDS011;3644;53.480;10.004;2022-12-26T04:46:09;10.63;;;6.07;;
7205;SDS011;3644;53.480;10.004;2022-12-26T04:48:40;7.30;;;5.40;;
7205;SDS011;3644;53.480;10.004;2022-12-26T04:51:25;6.87;;;5.13;;
7205;SDS011;3644;53.480;10.004;2022-12-26T04:53:51;9.17;;;5.50;;
7205;SDS011;3644;53.480;10.004;2022-12-26T04:56:16;8.13;;;5.87;;
7205;SDS011;3644;53.480;10.004;2022-12-26T04:58:42;6.80;;;5.60;;
7205;SDS011;3644;53.480;10.004;2022-12-26T05:01:08;7.93;;;5.83;;
7205;SDS011;3644;53.480;10.004;2022-12-26T05:03:52;7.93;;;5.60;;
7205;SDS011;3644;53.480;10.004;2022-12-26T05:06:36;9.37;;;6.23;;
7205;SDS011;3644;53.480;10.004;2022-12-26T05:09:20;7.83;;;5.50;;
7205;SDS011;3644;53.480;10.004;2022-12-26T05:11:58;8.83;;;5.73;;
7205;SDS011;3644;53.480;10.004;2022-12-26T05:14:23;8.00;;;5.10;;
7205;SDS011;3644;53.480;10.004;2022-12-26T05:16:49;6.43;;;5.23;;
7205;SDS011;3644;53.480;10.004;2022-12-26T05:19:33;7.80;;;4.90;;
7205;SDS011;3644;53.480;10.004;2022-12-26T05:22:17;8.47;;;5.93;;
7205;SDS011;3644;53.480;10.004;2022-12-26T05:25:01;13.37;;;5.60;;
7205;SDS011;3644;53.480;10.004;2022-12-26T05:27:45;7.30;;;6.07;;
7205;SDS011;3644;53.480;10.004;2022-12-26T05:30:29;10.30;;;6.80;;
7205;SDS011;3644;53.480;10.004;2022-12-26T05:32:55;10.33;;;7.03;;
7205;SDS011;3644;53.480;10.004;2022-12-26T05:35:39;11.87;;;7.97;;
7205;SDS011;3644;53.480;10.004;2022-12-26T05:38:05;11.67;;;7.33;;
7205;SDS011;3644;53.480;10.004;2022-12-26T05:40:34;13.60;;;8.73;;
7205;SDS011;3644;53.480;10.004;2022-12-26T05:43:00;13.90;;;8.43;;
7205;SDS011;3644;53.480;10.004;2022-12-26T05:45:25;14.93;;;8.80;;
7205;SDS011;3644;53.480;10.004;2022-12-26T05:47:56;14.50;;;9.00;;
7205;SDS011;3644;53.480;10.004;2022-12-26T05:50:23;11.07;;;7.73;;
7205;SDS011;3644;53.480;10.004;2022-12-26T05:52:49;11.70;;;8.73;;
7205;SDS011;3644;53.480;10.004;2022-12-26T05:55:14;10.50;;;6.83;;
7205;SDS011;3644;53.480;10.004;2022-12-26T05:57:40;10.40;;;7.33;;
7205;SDS011;3644;53.480;10.004;2022-12-26T06:00:07;10.57;;;7.63;;
7205;SDS011;3644;53.480;10.004;2022-12-26T06:02:33;12.27;;;7.20;;
7205;SDS011;3644;53.480;10.004;2022-12-26T06:04:58;11.23;;;6.93;;
7205;SDS011;3644;53.480;10.004;2022-12-26T06:07:24;9.73;;;6.68;;
7205;SDS011;3644;53.480;10.004;2022-12-26T06:09:49;9.10;;;6.93;;
7205;SDS011;3644;53.480;10.004;2022-12-26T06:12:14;8.93;;;6.13;;
7205;SDS011;3644;53.480;10.004;2022-12-26T06:14:40;9.40;;;6.97;;
7205;SDS011;3644;53.480;10.004;2022-12-26T06:17:05;9.63;;;6.40;;
7205;SDS011;3644;53.480;10.004;2022-12-26T06:19:31;8.30;;;5.93;;
7205;SDS011;3644;53.480;10.004;2022-12-26T06:21:56;9.00;;;5.70;;
7205;SDS011;3644;53.480;10.004;2022-12-26T06:24:22;10.70;;;6.90;;
7205;SDS011;3644;53.480;10.004;2022-12-26T06:26:47;7.00;;;5.67;;
7205;SDS011;3644;53.480;10.004;2022-12-26T06:29:13;11.10;;;6.97;;
7205;SDS011;3644;53.480;10.004;2022-12-26T06:31:39;9.60;;;7.17;;
7205;SDS011;3644;53.480;10.004;2022-12-26T06:34:04;8.70;;;6.00;;
7205;SDS011;3644;53.480;10.004;2022-12-26T06:36:30;8.03;;;6.27;;
7205;SDS011;3644;53.480;10.004;2022-12-26T06:38:55;9.77;;;6.50;;
7205;SDS011;3644;53.480;10.004;2022-12-26T06:41:22;11.03;;;7.10;;
7205;SDS011;3644;53.480;10.004;2022-12-26T06:43:49;10.40;;;6.80;;
7205;SDS011;3644;53.480;10.004;2022-12-26T06:46:16;9.83;;;7.30;;
7205;SDS011;3644;53.480;10.004;2022-12-26T06:48:44;8.80;;;6.93;;
7205;SDS011;3644;53.480;10.004;2022-12-26T06:51:11;9.53;;;6.87;;
7205;SDS011;3644;53.480;10.004;2022-12-26T06:53:38;7.20;;;6.27;;
7205;SDS011;3644;53.480;10.004;2022-12-26T06:56:05;6.73;;;6.03;;
7205;SDS011;3644;53.480;10.004;2022-12-26T06:58:32;7.40;;;6.30;;
7205;SDS011;3644;53.480;10.004;2022-12-26T07:01:04;6.90;;;5.13;;
7205;SDS011;3644;53.480;10.004;2022-12-26T07:03:31;7.20;;;5.97;;
7205;SDS011;3644;53.480;10.004;2022-12-26T07:06:00;10.03;;;6.63;;
7205;SDS011;3644;53.480;10.004;2022-12-26T07:08:30;6.87;;;5.33;;
7205;SDS011;3644;53.480;10.004;2022-12-26T07:10:55;6.53;;;5.63;;
7205;SDS011;3644;53.480;10.004;2022-12-26T07:13:21;10.00;;;7.10;;
7205;SDS011;3644;53.480;10.004;2022-12-26T07:15:47;7.80;;;6.23;;
7205;SDS011;3644;53.480;10.004;2022-12-26T07:18:12;7.87;;;6.23;;
7205;SDS011;3644;53.480;10.004;2022-12-26T07:20:38;9.27;;;7.30;;
7205;SDS011;3644;53.480;10.004;2022-12-26T07:23:03;10.83;;;7.43;;
7205;SDS011;3644;53.480;10.004;2022-12-26T07:25:29;9.23;;;7.90;;
7205;SDS011;3644;53.480;10.004;2022-12-26T07:27:54;12.00;;;9.33;;
7205;SDS011;3644;53.480;10.004;2022-12-26T07:30:20;14.13;;;8.40;;
7205;SDS011;3644;53.480;10.004;2022-12-26T07:32:46;12.30;;;8.80;;
7205;SDS011;3644;53.480;10.004;2022-12-26T07:35:11;12.50;;;9.10;;
7205;SDS011;3644;53.480;10.004;2022-12-26T07:37:36;14.10;;;10.90;;
7205;SDS011;3644;53.480;10.004;2022-12-26T07:40:02;18.10;;;11.60;;
7205;SDS011;3644;53.480;10.004;2022-12-26T07:42:28;17.83;;;11.37;;
7205;SDS011;3644;53.480;10.004;2022-12-26T07:44:53;14.30;;;11.30;;
7205;SDS011;3644;53.480;10.004;2022-12-26T07:47:19;15.83;;;12.20;;
7205;SDS011;3644;53.480;10.004;2022-12-26T07:49:44;18.97;;;13.13;;
7205;SDS011;3644;53.480;10.004;2022-12-26T07:52:10;22.10;;;12.50;;
7205;SDS011;3644;53.480;10.004;2022-12-26T07:54:35;15.30;;;12.57;;
7205;SDS011;3644;53.480;10.004;2022-12-26T07:57:01;14.40;;;11.17;;
7205;SDS011;3644;53.480;10.004;2022-12-26T07:59:26;21.90;;;12.83;;
7205;SDS011;3644;53.480;10.004;2022-12-26T08:01:52;14.90;;;11.30;;
7205;SDS011;3644;53.480;10.004;2022-12-26T08:04:17;18.80;;;12.40;;
7205;SDS011;3644;53.480;10.004;2022-12-26T08:06:44;18.27;;;12.30;;
7205;SDS011;3644;53.480;10.004;2022-12-26T08:09:13;23.07;;;12.90;;
7205;SDS011;3644;53.480;10.004;2022-12-26T08:11:42;15.30;;;11.40;;
7205;SDS011;3644;53.480;10.004;2022-12-26T08:14:12;16.27;;;11.47;;
7205;SDS011;3644;53.480;10.004;2022-12-26T08:16:40;22.90;;;13.43;;
7205;SDS011;3644;53.480;10.004;2022-12-26T08:19:06;20.77;;;14.60;;
7205;SDS011;3644;53.480;10.004;2022-12-26T08:21:31;19.40;;;13.80;;
7205;SDS011;3644;53.480;10.004;2022-12-26T08:23:57;22.57;;;15.50;;
7205;SDS011;3644;53.480;10.004;2022-12-26T08:26:23;20.37;;;13.63;;
7205;SDS011;3644;53.480;10.004;2022-12-26T08:28:48;22.47;;;14.77;;
7205;SDS011;3644;53.480;10.004;2022-12-26T08:31:15;20.57;;;14.57;;
7205;SDS011;3644;53.480;10.004;2022-12-26T08:33:42;22.33;;;15.97;;
7205;SDS011;3644;53.480;10.004;2022-12-26T08:36:08;28.40;;;14.80;;
7205;SDS011;3644;53.480;10.004;2022-12-26T08:38:36;22.50;;;14.97;;
7205;SDS011;3644;53.480;10.004;2022-12-26T08:41:13;22.27;;;13.93;;
7205;SDS011;3644;53.480;10.004;2022-12-26T08:43:41;22.33;;;14.13;;
7205;SDS011;3644;53.480;10.004;2022-12-26T08:46:07;23.63;;;14.93;;
7205;SDS011;3644;53.480;10.004;2022-12-26T08:48:35;25.37;;;15.37;;
7205;SDS011;3644;53.480;10.004;2022-12-26T08:51:06;20.23;;;13.73;;
7205;SDS011;3644;53.480;10.004;2022-12-26T08:53:34;25.60;;;16.33;;
7205;SDS011;3644;53.480;10.004;2022-12-26T08:56:00;19.73;;;14.60;;
7205;SDS011;3644;53.480;10.004;2022-12-26T08:58:30;23.73;;;15.03;;
7205;SDS011;3644;53.480;10.004;2022-12-26T09:01:04;21.10;;;14.80;;
7205;SDS011;3644;53.480;10.004;2022-12-26T09:03:35;23.53;;;15.33;;
7205;SDS011;3644;53.480;10.004;2022-12-26T09:06:01;22.03;;;14.20;;
7205;SDS011;3644;53.480;10.004;2022-12-26T09:08:28;25.17;;;16.23;;
7205;SDS011;3644;53.480;10.004;2022-12-26T09:10:54;20.47;;;13.27;;
7205;SDS011;3644;53.480;10.004;2022-12-26T09:13:21;18.30;;;12.93;;
7205;SDS011;3644;53.480;10.004;2022-12-26T09:15:47;20.17;;;12.73;;
7205;SDS011;3644;53.480;10.004;2022-12-26T09:18:12;18.97;;;12.87;;
7205;SDS011;3644;53.480;10.004;2022-12-26T09:20:38;19.93;;;12.60;;
7205;SDS011;3644;53.480;10.004;2022-12-26T09:23:03;19.73;;;13.50;;
7205;SDS011;3644;53.480;10.004;2022-12-26T09:25:29;19.23;;;13.67;;
7205;SDS011;3644;53.480;10.004;2022-12-26T09:27:54;21.80;;;13.43;;
7205;SDS011;3644;53.480;10.004;2022-12-26T09:30:20;18.83;;;12.53;;
7205;SDS011;3644;53.480;10.004;2022-12-26T09:32:47;19.67;;;12.67;;
7205;SDS011;3644;53.480;10.004;2022-12-26T09:35:13;25.93;;;12.77;;
7205;SDS011;3644;53.480;10.004;2022-12-26T09:37:38;21.37;;;13.40;;
7205;SDS011;3644;53.480;10.004;2022-12-26T09:40:04;16.10;;;10.83;;
7205;SDS011;3644;53.480;10.004;2022-12-26T09:42:44;20.40;;;12.60;;
7205;SDS011;3644;53.480;10.004;2022-12-26T09:45:18;21.53;;;12.90;;
7205;SDS011;3644;53.480;10.004;2022-12-26T09:48:01;19.80;;;13.47;;
7205;SDS011;3644;53.480;10.004;2022-12-26T09:50:34;18.20;;;10.80;;
7205;SDS011;3644;53.480;10.004;2022-12-26T09:58:05;17.37;;;10.90;;
7205;SDS011;3644;53.480;10.004;2022-12-26T10:01:23;16.83;;;11.60;;
7205;SDS011;3644;53.480;10.004;2022-12-26T10:03:36;20.17;;;12.50;;
7205;SDS011;3644;53.480;10.004;2022-12-26T10:06:21;20.33;;;11.67;;
7205;SDS011;3644;53.480;10.004;2022-12-26T10:09:03;25.57;;;13.67;;
7205;SDS011;3644;53.480;10.004;2022-12-26T10:11:51;28.87;;;13.90;;
7205;SDS011;3644;53.480;10.004;2022-12-26T10:14:36;21.40;;;12.50;;
7205;SDS011;3644;53.480;10.004;2022-12-26T10:20:19;22.93;;;12.93;;
7205;SDS011;3644;53.480;10.004;2022-12-26T10:25:51;22.67;;;13.20;;
7205;SDS011;3644;53.480;10.004;2022-12-26T10:28:25;26.40;;;12.67;;
7205;SDS011;3644;53.480;10.004;2022-12-26T10:31:03;31.53;;;12.37;;
7205;SDS011;3644;53.480;10.004;2022-12-26T10:36:14;22.60;;;14.17;;
7205;SDS011;3644;53.480;10.004;2022-12-26T10:38:43;22.67;;;13.17;;
7205;SDS011;3644;53.480;10.004;2022-12-26T10:41:23;19.73;;;12.10;;
7205;SDS011;3644;53.480;10.004;2022-12-26T10:43:51;23.47;;;12.80;;
7205;SDS011;3644;53.480;10.004;2022-12-26T10:49:21;18.30;;;10.90;;
7205;SDS011;3644;53.480;10.004;2022-12-26T10:51:50;20.80;;;11.87;;
7205;SDS011;3644;53.480;10.004;2022-12-26T10:54:18;22.80;;;12.93;;
7205;SDS011;3644;53.480;10.004;2022-12-26T10:56:44;26.13;;;13.70;;
7205;SDS011;3644;53.480;10.004;2022-12-26T10:59:14;17.83;;;11.43;;
7205;SDS011;3644;53.480;10.004;2022-12-26T11:01:42;19.03;;;12.03;;
7205;SDS011;3644;53.480;10.004;2022-12-26T11:04:15;22.57;;;11.37;;
7205;SDS011;3644;53.480;10.004;2022-12-26T11:06:43;20.33;;;13.10;;
7205;SDS011;3644;53.480;10.004;2022-12-26T11:09:30;17.60;;;11.63;;
7205;SDS011;3644;53.480;10.004;2022-12-26T11:12:02;15.70;;;10.30;;
7205;SDS011;3644;53.480;10.004;2022-12-26T11:14:38;16.73;;;10.50;;
7205;SDS011;3644;53.480;10.004;2022-12-26T11:17:07;21.43;;;10.77;;
7205;SDS011;3644;53.480;10.004;2022-12-26T11:19:39;14.53;;;10.03;;
7205;SDS011;3644;53.480;10.004;2022-12-26T11:22:13;15.00;;;9.97;;
7205;SDS011;3644;53.480;10.004;2022-12-26T11:24:45;17.50;;;10.27;;
7205;SDS011;3644;53.480;10.004;2022-12-26T11:27:25;14.83;;;9.07;;
7205;SDS011;3644;53.480;10.004;2022-12-26T11:29:55;18.93;;;8.70;;
7205;SDS011;3644;53.480;10.004;2022-12-26T11:32:42;15.00;;;8.43;;
7205;SDS011;3644;53.480;10.004;2022-12-26T11:35:23;17.63;;;9.80;;
7205;SDS011;3644;53.480;10.004;2022-12-26T11:37:55;16.77;;;11.00;;
7205;SDS011;3644;53.480;10.004;2022-12-26T11:40:29;23.83;;;10.87;;
7205;SDS011;3644;53.480;10.004;2022-12-26T11:42:59;16.33;;;10.00;;
7205;SDS011;3644;53.480;10.004;2022-12-26T11:45:27;14.93;;;9.20;;
7205;SDS011;3644;53.480;10.004;2022-12-26T11:47:55;14.90;;;8.90;;
7205;SDS011;3644;53.480;10.004;2022-12-26T11:50:24;13.37;;;8.83;;
7205;SDS011;3644;53.480;10.004;2022-12-26T12:00:31;12.80;;;8.67;;
7205;SDS011;3644;53.480;10.004;2022-12-26T12:02:58;16.73;;;9.20;;
7205;SDS011;3644;53.480;10.004;2022-12-26T12:16:44;14.03;;;7.67;;
7205;SDS011;3644;53.480;10.004;2022-12-26T12:27:42;9.07;;;7.23;;
7205;SDS011;3644;53.480;10.004;2022-12-26T12:30:29;14.83;;;7.00;;
7205;SDS011;3644;53.480;10.004;2022-12-26T12:33:11;14.37;;;6.57;;
7205;SDS011;3644;53.480;10.004;2022-12-26T12:36:37;8.27;;;6.87;;
7205;SDS011;3644;53.480;10.004;2022-12-26T12:52:59;7.47;;;5.20;;
7205;SDS011;3644;53.480;10.004;2022-12-26T12:55:37;7.63;;;5.93;;
7205;SDS011;3644;53.480;10.004;2022-12-26T13:01:02;17.27;;;10.07;;
7205;SDS011;3644;53.480;10.004;2022-12-26T13:03:54;13.10;;;6.37;;
7205;SDS011;3644;53.480;10.004;2022-12-26T13:06:24;8.90;;;5.97;;
7205;SDS011;3644;53.480;10.004;2022-12-26T13:11:32;5.60;;;4.67;;
7205;SDS011;3644;53.480;10.004;2022-12-26T13:14:12;6.70;;;5.00;;
7205;SDS011;3644;53.480;10.004;2022-12-26T13:16:49;6.80;;;5.23;;
7205;SDS011;3644;53.480;10.004;2022-12-26T13:19:29;4.73;;;3.77;;
7205;SDS011;3644;53.480;10.004;2022-12-26T13:22:03;4.00;;;3.60;;
7205;SDS011;3644;53.480;10.004;2022-12-26T13:24:34;4.80;;;3.70;;
7205;SDS011;3644;53.480;10.004;2022-12-26T13:27:08;3.80;;;3.37;;
7205;SDS011;3644;53.480;10.004;2022-12-26T13:29:39;4.63;;;3.63;;
7205;SDS011;3644;53.480;10.004;2022-12-26T13:32:16;9.83;;;3.77;;
7205;SDS011;3644;53.480;10.004;2022-12-26T13:34:48;3.33;;;3.00;;
7205;SDS011;3644;53.480;10.004;2022-12-26T13:40:02;4.73;;;2.23;;
7205;SDS011;3644;53.480;10.004;2022-12-26T13:42:40;6.50;;;1.40;;
7205;SDS011;3644;53.480;10.004;2022-12-26T13:48:44;3.07;;;1.63;;
7205;SDS011;3644;53.480;10.004;2022-12-26T13:50:51;6.67;;;1.83;;
7205;SDS011;3644;53.480;10.004;2022-12-26T13:55:50;8.47;;;3.07;;
7205;SDS011;3644;53.480;10.004;2022-12-26T14:00:53;7.73;;;2.07;;
7205;SDS011;3644;53.480;10.004;2022-12-26T14:06:16;2.33;;;1.60;;
7205;SDS011;3644;53.480;10.004;2022-12-26T14:08:54;4.10;;;1.87;;
7205;SDS011;3644;53.480;10.004;2022-12-26T14:11:41;1.70;;;1.47;;
7205;SDS011;3644;53.480;10.004;2022-12-26T14:25:26;2.97;;;1.90;;
7205;SDS011;3644;53.480;10.004;2022-12-26T14:33:48;5.63;;;1.63;;
7205;SDS011;3644;53.480;10.004;2022-12-26T14:36:33;5.50;;;1.60;;
7205;SDS011;3644;53.480;10.004;2022-12-26T14:44:58;4.63;;;1.53;;
7205;SDS011;3644;53.480;10.004;2022-12-26T14:55:53;7.67;;;1.90;;
7205;SDS011;3644;53.480;10.004;2022-12-26T15:00:56;4.13;;;2.10;;
7205;SDS011;3644;53.480;10.004;2022-12-26T15:03:38;8.30;;;1.80;;
7205;SDS011;3644;53.480;10.004;2022-12-26T15:08:56;4.63;;;2.17;;
7205;SDS011;3644;53.480;10.004;2022-12-26T15:16:53;5.43;;;1.70;;
7205;SDS011;3644;53.480;10.004;2022-12-26T15:19:44;19.40;;;2.33;;
7205;SDS011;3644;53.480;10.004;2022-12-26T15:28:10;8.93;;;3.33;;
7205;SDS011;3644;53.480;10.004;2022-12-26T15:39:55;10.23;;;2.17;;
7205;SDS011;3644;53.480;10.004;2022-12-26T15:42:33;16.90;;;1.70;;
7205;SDS011;3644;53.480;10.004;2022-12-26T15:48:47;8.17;;;2.60;;
7205;SDS011;3644;53.480;10.004;2022-12-26T15:51:37;7.83;;;2.50;;
7205;SDS011;3644;53.480;10.004;2022-12-26T15:54:24;4.60;;;2.07;;
7205;SDS011;3644;53.480;10.004;2022-12-26T16:00:14;18.73;;;2.43;;
7205;SDS011;3644;53.480;10.004;2022-12-26T16:02:46;14.13;;;3.43;;
7205;SDS011;3644;53.480;10.004;2022-12-26T16:08:42;23.70;;;8.47;;
7205;SDS011;3644;53.480;10.004;2022-12-26T16:13:51;19.77;;;4.80;;
7205;SDS011;3644;53.480;10.004;2022-12-26T16:18:57;15.70;;;7.07;;
7205;SDS011;3644;53.480;10.004;2022-12-26T16:21:37;23.70;;;4.80;;
7205;SDS011;3644;53.480;10.004;2022-12-26T16:24:21;14.53;;;4.90;;
7205;SDS011;3644;53.480;10.004;2022-12-26T16:26:47;12.37;;;6.03;;
7205;SDS011;3644;53.480;10.004;2022-12-26T16:29:17;15.43;;;4.40;;
7205;SDS011;3644;53.480;10.004;2022-12-26T16:31:44;20.17;;;5.00;;
7205;SDS011;3644;53.480;10.004;2022-12-26T16:34:19;14.93;;;5.60;;
7205;SDS011;3644;53.480;10.004;2022-12-26T16:36:46;16.67;;;8.00;;
7205;SDS011;3644;53.480;10.004;2022-12-26T16:39:20;28.67;;;10.10;;
7205;SDS011;3644;53.480;10.004;2022-12-26T16:41:57;14.50;;;5.37;;
7205;SDS011;3644;53.480;10.004;2022-12-26T16:47:00;20.63;;;7.70;;
7205;SDS011;3644;53.480;10.004;2022-12-26T16:49:29;11.77;;;5.10;;
7205;SDS011;3644;53.480;10.004;2022-12-26T16:51:56;18.33;;;6.10;;
7205;SDS011;3644;53.480;10.004;2022-12-26T16:56:56;29.93;;;6.47;;
7205;SDS011;3644;53.480;10.004;2022-12-26T16:59:46;17.40;;;7.50;;
7205;SDS011;3644;53.480;10.004;2022-12-26T17:02:20;12.20;;;5.63;;
7205;SDS011;3644;53.480;10.004;2022-12-26T17:04:49;38.87;;;12.73;;
7205;SDS011;3644;53.480;10.004;2022-12-26T17:07:37;39.40;;;11.80;;
7205;SDS011;3644;53.480;10.004;2022-12-26T17:10:15;23.17;;;8.67;;
7205;SDS011;3644;53.480;10.004;2022-12-26T17:12:47;15.03;;;6.33;;
7205;SDS011;3644;53.480;10.004;2022-12-26T17:15:20;21.73;;;6.50;;
7205;SDS011;3644;53.480;10.004;2022-12-26T17:17:49;9.50;;;4.87;;
7205;SDS011;3644;53.480;10.004;2022-12-26T17:22:46;20.67;;;3.60;;
7205;SDS011;3644;53.480;10.004;2022-12-26T17:25:17;10.60;;;3.60;;
7205;SDS011;3644;53.480;10.004;2022-12-26T17:27:44;8.03;;;2.67;;
7205;SDS011;3644;53.480;10.004;2022-12-26T17:32:46;5.50;;;2.73;;
7205;SDS011;3644;53.480;10.004;2022-12-26T17:35:24;6.50;;;2.10;;
7205;SDS011;3644;53.480;10.004;2022-12-26T17:37:55;14.87;;;2.90;;
7205;SDS011;3644;53.480;10.004;2022-12-26T17:40:37;37.10;;;11.90;;
7205;SDS011;3644;53.480;10.004;2022-12-26T17:45:37;17.10;;;6.80;;
7205;SDS011;3644;53.480;10.004;2022-12-26T17:48:04;9.43;;;4.00;;
7205;SDS011;3644;53.480;10.004;2022-12-26T17:50:31;14.67;;;3.30;;
7205;SDS011;3644;53.480;10.004;2022-12-26T17:55:46;12.00;;;4.10;;
7205;SDS011;3644;53.480;10.004;2022-12-26T17:58:13;15.00;;;2.77;;
7205;SDS011;3644;53.480;10.004;2022-12-26T18:00:40;7.20;;;2.60;;
7205;SDS011;3644;53.480;10.004;2022-12-26T18:03:06;29.87;;;4.47;;
7205;SDS011;3644;53.480;10.004;2022-12-26T18:05:32;15.80;;;4.53;;
7205;SDS011;3644;53.480;10.004;2022-12-26T18:07:59;18.47;;;3.43;;
7205;SDS011;3644;53.480;10.004;2022-12-26T18:10:26;15.50;;;3.63;;
7205;SDS011;3644;53.480;10.004;2022-12-26T18:12:54;12.80;;;3.70;;
7205;SDS011;3644;53.480;10.004;2022-12-26T18:15:20;19.00;;;4.50;;
7205;SDS011;3644;53.480;10.004;2022-12-26T18:17:47;4.53;;;2.90;;
7205;SDS011;3644;53.480;10.004;2022-12-26T18:20:15;20.83;;;3.40;;
7205;SDS011;3644;53.480;10.004;2022-12-26T18:22:54;8.33;;;3.20;;
7205;SDS011;3644;53.480;10.004;2022-12-26T18:25:21;19.03;;;2.90;;
7205;SDS011;3644;53.480;10.004;2022-12-26T18:27:48;22.57;;;6.50;;
7205;SDS011;3644;53.480;10.004;2022-12-26T18:30:19;69.00;;;17.37;;
7205;SDS011;3644;53.480;10.004;2022-12-26T18:32:48;74.73;;;21.80;;
7205;SDS011;3644;53.480;10.004;2022-12-26T18:35:14;47.47;;;14.90;;
7205;SDS011;3644;53.480;10.004;2022-12-26T18:37:42;39.13;;;10.10;;
7205;SDS011;3644;53.480;10.004;2022-12-26T18:40:33;155.60;;;38.90;;
7205;SDS011;3644;53.480;10.004;2022-12-26T18:43:06;61.20;;;14.90;;
7205;SDS011;3644;53.480;10.004;2022-12-26T18:45:33;53.63;;;14.20;;